sensor_id;sensor_type;location;lat;lon;timestamp;P1;durP1;ratioP1;P2;durP2;ratioP2
16288;SDS011;26089;43.538;5.250;2023-04-15T00:01:03;4.23;;;1.90;;
16288;SDS011;26089;43.538;5.250;2023-04-15T00:03:30;4.47;;;2.17;;
16288;SDS011;26089;43.538;5.250;2023-04-15T00:05:58;3.77;;;2.20;;
16288;SDS011;26089;43.538;5.250;2023-04-15T00:08:25;7.33;;;2.77;;
16288;SDS011;26089;43.538;5.250;2023-04-15T00:10:52;4.90;;;2.93;;
16288;SDS011;26089;43.538;5.250;2023-04-15T00:13:19;3.67;;;2.70;;
16288;SDS011;26089;43.538;5.250;2023-04-15T00:15:46;3.67;;;2.30;;
16288;SDS011;26089;43.538;5.250;2023-04-15T00:18:15;5.03;;;2.30;;
16288;SDS011;26089;43.538;5.250;2023-04-15T00:20:42;4.33;;;3.00;;
16288;SDS011;26089;43.538;5.250;2023-04-15T00:23:09;5.73;;;3.37;;
16288;SDS011;26089;43.538;5.250;2023-04-15T00:25:36;6.07;;;3.50;;
16288;SDS011;26089;43.538;5.250;2023-04-15T00:28:03;4.73;;;3.10;;
16288;SDS011;26089;43.538;5.250;2023-04-15T00:30:30;6.33;;;3.10;;
16288;SDS011;26089;43.538;5.250;2023-04-15T00:32:57;3.10;;;2.30;;
16288;SDS011;26089;43.538;5.250;2023-04-15T00:35:26;6.33;;;2.70;;
16288;SDS011;26089;43.538;5.250;2023-04-15T00:37:53;5.97;;;2.33;;
16288;SDS011;26089;43.538;5.250;2023-04-15T00:40:20;2.73;;;2.20;;
16288;SDS011;26089;43.538;5.250;2023-04-15T00:42:48;2.33;;;2.13;;
16288;SDS011;26089;43.538;5.250;2023-04-15T00:45:15;2.80;;;1.83;;
16288;SDS011;26089;43.538;5.250;2023-04-15T00:47:43;3.60;;;2.00;;
16288;SDS011;26089;43.538;5.250;2023-04-15T00:50:11;2.93;;;2.50;;
16288;SDS011;26089;43.538;5.250;2023-04-15T00:52:39;2.77;;;2.43;;
16288;SDS011;26089;43.538;5.250;2023-04-15T00:55:07;3.47;;;2.20;;
16288;SDS011;26089;43.538;5.250;2023-04-15T00:57:35;3.23;;;2.03;;
16288;SDS011;26089;43.538;5.250;2023-04-15T01:00:03;5.50;;;2.67;;
16288;SDS011;26089;43.538;5.250;2023-04-15T01:02:33;3.80;;;2.10;;
16288;SDS011;26089;43.538;5.250;2023-04-15T01:05:00;4.00;;;2.67;;
16288;SDS011;26089;43.538;5.250;2023-04-15T01:07:28;3.40;;;2.50;;
16288;SDS011;26089;43.538;5.250;2023-04-15T01:09:56;4.50;;;2.10;;
16288;SDS011;26089;43.538;5.250;2023-04-15T01:12:23;3.90;;;2.50;;
16288;SDS011;26089;43.538;5.250;2023-04-15T01:14:52;3.60;;;2.30;;
16288;SDS011;26089;43.538;5.250;2023-04-15T01:17:19;4.03;;;3.13;;
16288;SDS011;26089;43.538;5.250;2023-04-15T01:19:47;3.47;;;3.17;;
16288;SDS011;26089;43.538;5.250;2023-04-15T01:22:14;2.60;;;2.40;;
16288;SDS011;26089;43.538;5.250;2023-04-15T01:24:41;4.83;;;2.90;;
16288;SDS011;26089;43.538;5.250;2023-04-15T01:27:12;2.50;;;2.30;;
16288;SDS011;26089;43.538;5.250;2023-04-15T01:29:39;5.63;;;3.20;;
16288;SDS011;26089;43.538;5.250;2023-04-15T01:32:07;3.67;;;3.23;;
16288;SDS011;26089;43.538;5.250;2023-04-15T01:34:34;3.67;;;2.73;;
16288;SDS011;26089;43.538;5.250;2023-04-15T01:37:01;3.43;;;3.13;;
16288;SDS011;26089;43.538;5.250;2023-04-15T01:39:28;4.30;;;3.23;;
16288;SDS011;26089;43.538;5.250;2023-04-15T01:41:55;3.43;;;2.97;;
16288;SDS011;26089;43.538;5.250;2023-04-15T01:44:23;5.30;;;3.50;;
16288;SDS011;26089;43.538;5.250;2023-04-15T01:46:51;4.57;;;3.40;;
16288;SDS011;26089;43.538;5.250;2023-04-15T01:49:18;3.40;;;3.10;;
16288;SDS011;26089;43.538;5.250;2023-04-15T01:51:45;4.63;;;3.17;;
16288;SDS011;26089;43.538;5.250;2023-04-15T01:54:12;3.70;;;2.83;;
16288;SDS011;26089;43.538;5.250;2023-04-15T01:56:39;3.00;;;2.80;;
16288;SDS011;26089;43.538;5.250;2023-04-15T01:59:06;4.93;;;3.10;;
16288;SDS011;26089;43.538;5.250;2023-04-15T02:01:35;5.40;;;3.90;;
16288;SDS011;26089;43.538;5.250;2023-04-15T02:04:02;3.20;;;2.90;;
16288;SDS011;26089;43.538;5.250;2023-04-15T02:06:29;3.63;;;3.17;;
16288;SDS011;26089;43.538;5.250;2023-04-15T02:08:56;3.43;;;3.13;;
16288;SDS011;26089;43.538;5.250;2023-04-15T02:11:23;3.50;;;2.80;;
16288;SDS011;26089;43.538;5.250;2023-04-15T02:13:50;3.07;;;2.80;;
16288;SDS011;26089;43.538;5.250;2023-04-15T02:16:17;3.43;;;3.13;;
16288;SDS011;26089;43.538;5.250;2023-04-15T02:18:46;4.60;;;3.10;;
16288;SDS011;26089;43.538;5.250;2023-04-15T02:21:13;3.37;;;3.07;;
16288;SDS011;26089;43.538;5.250;2023-04-15T02:23:40;3.00;;;2.67;;
16288;SDS011;26089;43.538;5.250;2023-04-15T02:26:08;4.60;;;2.93;;
16288;SDS011;26089;43.538;5.250;2023-04-15T02:28:35;3.67;;;3.27;;
16288;SDS011;26089;43.538;5.250;2023-04-15T02:31:04;4.77;;;2.97;;
16288;SDS011;26089;43.538;5.250;2023-04-15T02:33:31;3.80;;;3.50;;
16288;SDS011;26089;43.538;5.250;2023-04-15T02:35:59;2.97;;;2.77;;
16288;SDS011;26089;43.538;5.250;2023-04-15T02:38:26;3.40;;;3.20;;
16288;SDS011;26089;43.538;5.250;2023-04-15T02:40:53;3.40;;;3.20;;
16288;SDS011;26089;43.538;5.250;2023-04-15T02:43:21;3.20;;;3.00;;
16288;SDS011;26089;43.538;5.250;2023-04-15T02:45:48;3.70;;;3.27;;
16288;SDS011;26089;43.538;5.250;2023-04-15T02:48:15;3.37;;;3.10;;
16288;SDS011;26089;43.538;5.250;2023-04-15T02:50:44;4.17;;;3.60;;
16288;SDS011;26089;43.538;5.250;2023-04-15T02:53:13;3.70;;;3.40;;
16288;SDS011;26089;43.538;5.250;2023-04-15T02:55:40;3.83;;;3.50;;
16288;SDS011;26089;43.538;5.250;2023-04-15T02:58:07;3.33;;;3.03;;
16288;SDS011;26089;43.538;5.250;2023-04-15T03:00:34;4.23;;;3.77;;
16288;SDS011;26089;43.538;5.250;2023-04-15T03:03:01;3.40;;;3.20;;
16288;SDS011;26089;43.538;5.250;2023-04-15T03:05:30;3.90;;;3.50;;
16288;SDS011;26089;43.538;5.250;2023-04-15T03:07:57;3.37;;;3.13;;
16288;SDS011;26089;43.538;5.250;2023-04-15T03:10:26;3.70;;;3.40;;
16288;SDS011;26089;43.538;5.250;2023-04-15T03:12:53;4.63;;;3.87;;
16288;SDS011;26089;43.538;5.250;2023-04-15T03:15:20;4.20;;;3.80;;
16288;SDS011;26089;43.538;5.250;2023-04-15T03:17:47;4.87;;;3.90;;
16288;SDS011;26089;43.538;5.250;2023-04-15T03:20:14;4.30;;;4.00;;
16288;SDS011;26089;43.538;5.250;2023-04-15T03:22:41;3.80;;;3.50;;
16288;SDS011;26089;43.538;5.250;2023-04-15T03:25:08;4.87;;;4.37;;
16288;SDS011;26089;43.538;5.250;2023-04-15T03:27:38;4.27;;;3.90;;
16288;SDS011;26089;43.538;5.250;2023-04-15T03:30:05;4.63;;;4.03;;
16288;SDS011;26089;43.538;5.250;2023-04-15T03:32:33;5.00;;;4.50;;
16288;SDS011;26089;43.538;5.250;2023-04-15T03:35:00;4.67;;;4.17;;
16288;SDS011;26089;43.538;5.250;2023-04-15T03:37:27;4.53;;;4.13;;
16288;SDS011;26089;43.538;5.250;2023-04-15T03:39:54;5.53;;;4.73;;
16288;SDS011;26089;43.538;5.250;2023-04-15T03:42:21;5.10;;;4.60;;
16288;SDS011;26089;43.538;5.250;2023-04-15T03:44:49;4.87;;;4.47;;
16288;SDS011;26089;43.538;5.250;2023-04-15T03:47:16;5.80;;;5.03;;
16288;SDS011;26089;43.538;5.250;2023-04-15T03:49:43;4.83;;;4.43;;
16288;SDS011;26089;43.538;5.250;2023-04-15T03:52:10;5.90;;;5.30;;
16288;SDS011;26089;43.538;5.250;2023-04-15T03:54:37;5.47;;;4.97;;
16288;SDS011;26089;43.538;5.250;2023-04-15T03:57:04;5.73;;;5.13;;
16288;SDS011;26089;43.538;5.250;2023-04-15T03:59:31;6.50;;;5.33;;
16288;SDS011;26089;43.538;5.250;2023-04-15T04:02:00;4.93;;;4.40;;
16288;SDS011;26089;43.538;5.250;2023-04-15T04:04:27;5.60;;;5.10;;
16288;SDS011;26089;43.538;5.250;2023-04-15T04:06:53;6.20;;;4.87;;
16288;SDS011;26089;43.538;5.250;2023-04-15T04:09:20;5.17;;;4.67;;
16288;SDS011;26089;43.538;5.250;2023-04-15T04:11:47;5.27;;;4.77;;
16288;SDS011;26089;43.538;5.250;2023-04-15T04:14:14;7.10;;;5.07;;
16288;SDS011;26089;43.538;5.250;2023-04-15T04:16:41;5.77;;;5.27;;
16288;SDS011;26089;43.538;5.250;2023-04-15T04:19:10;6.77;;;5.33;;
16288;SDS011;26089;43.538;5.250;2023-04-15T04:21:38;5.00;;;4.50;;
16288;SDS011;26089;43.538;5.250;2023-04-15T04:24:05;5.93;;;5.17;;
16288;SDS011;26089;43.538;5.250;2023-04-15T04:26:32;6.50;;;5.33;;
16288;SDS011;26089;43.538;5.250;2023-04-15T04:28:59;5.43;;;4.93;;
16288;SDS011;26089;43.538;5.250;2023-04-15T04:31:26;4.80;;;4.40;;
16288;SDS011;26089;43.538;5.250;2023-04-15T04:33:53;4.50;;;4.10;;
16288;SDS011;26089;43.538;5.250;2023-04-15T04:36:22;6.90;;;4.70;;
16288;SDS011;26089;43.538;5.250;2023-04-15T04:38:49;4.53;;;4.13;;
16288;SDS011;26089;43.538;5.250;2023-04-15T04:41:16;5.00;;;4.60;;
16288;SDS011;26089;43.538;5.250;2023-04-15T04:43:43;6.00;;;4.70;;
16288;SDS011;26089;43.538;5.250;2023-04-15T04:46:10;4.60;;;4.30;;
16288;SDS011;26089;43.538;5.250;2023-04-15T04:48:37;4.40;;;3.93;;
16288;SDS011;26089;43.538;5.250;2023-04-15T04:51:05;4.37;;;4.07;;
16288;SDS011;26089;43.538;5.250;2023-04-15T04:53:33;4.03;;;3.63;;
16288;SDS011;26089;43.538;5.250;2023-04-15T04:56:01;4.67;;;3.87;;
16288;SDS011;26089;43.538;5.250;2023-04-15T04:58:28;3.87;;;3.50;;
16288;SDS011;26089;43.538;5.250;2023-04-15T05:00:55;4.03;;;3.73;;
16288;SDS011;26089;43.538;5.250;2023-04-15T05:03:22;3.90;;;3.50;;
16288;SDS011;26089;43.538;5.250;2023-04-15T05:05:49;4.43;;;4.03;;
16288;SDS011;26089;43.538;5.250;2023-04-15T05:08:16;4.03;;;2.90;;
16288;SDS011;26089;43.538;5.250;2023-04-15T05:10:45;4.70;;;3.33;;
16288;SDS011;26089;43.538;5.250;2023-04-15T05:13:12;4.30;;;3.37;;
16288;SDS011;26089;43.538;5.250;2023-04-15T05:15:39;3.43;;;3.13;;
16288;SDS011;26089;43.538;5.250;2023-04-15T05:18:07;3.23;;;2.97;;
16288;SDS011;26089;43.538;5.250;2023-04-15T05:20:34;3.30;;;2.90;;
16288;SDS011;26089;43.538;5.250;2023-04-15T05:23:01;3.67;;;3.30;;
16288;SDS011;26089;43.538;5.250;2023-04-15T05:25:28;4.57;;;3.33;;
16288;SDS011;26089;43.538;5.250;2023-04-15T05:27:56;4.00;;;3.60;;
16288;SDS011;26089;43.538;5.250;2023-04-15T05:30:23;3.20;;;3.00;;
16288;SDS011;26089;43.538;5.250;2023-04-15T05:32:50;4.10;;;3.53;;
16288;SDS011;26089;43.538;5.250;2023-04-15T05:35:17;4.23;;;3.37;;
16288;SDS011;26089;43.538;5.250;2023-04-15T05:37:44;4.53;;;4.13;;
16288;SDS011;26089;43.538;5.250;2023-04-15T05:40:11;3.30;;;3.00;;
16288;SDS011;26089;43.538;5.250;2023-04-15T05:42:39;3.40;;;3.10;;
16288;SDS011;26089;43.538;5.250;2023-04-15T05:45:08;4.73;;;3.53;;
16288;SDS011;26089;43.538;5.250;2023-04-15T05:47:35;4.63;;;3.20;;
16288;SDS011;26089;43.538;5.250;2023-04-15T05:50:02;3.53;;;3.23;;
16288;SDS011;26089;43.538;5.250;2023-04-15T05:52:30;4.83;;;3.77;;
16288;SDS011;26089;43.538;5.250;2023-04-15T05:54:57;7.40;;;6.63;;
16288;SDS011;26089;43.538;5.250;2023-04-15T05:57:24;6.87;;;6.27;;
16288;SDS011;26089;43.538;5.250;2023-04-15T05:59:51;4.20;;;3.60;;
16288;SDS011;26089;43.538;5.250;2023-04-15T06:02:21;3.57;;;2.70;;
16288;SDS011;26089;43.538;5.250;2023-04-15T06:04:48;2.50;;;2.30;;
16288;SDS011;26089;43.538;5.250;2023-04-15T06:07:15;3.63;;;2.03;;
16288;SDS011;26089;43.538;5.250;2023-04-15T06:09:42;2.20;;;2.10;;
16288;SDS011;26089;43.538;5.250;2023-04-15T06:12:09;2.57;;;2.00;;
16288;SDS011;26089;43.538;5.250;2023-04-15T06:14:37;2.63;;;1.90;;
16288;SDS011;26089;43.538;5.250;2023-04-15T06:17:04;3.63;;;1.73;;
16288;SDS011;26089;43.538;5.250;2023-04-15T06:19:33;2.30;;;1.40;;
16288;SDS011;26089;43.538;5.250;2023-04-15T06:22:00;2.23;;;1.80;;
16288;SDS011;26089;43.538;5.250;2023-04-15T06:24:27;4.33;;;2.17;;
16288;SDS011;26089;43.538;5.250;2023-04-15T06:26:54;1.57;;;1.47;;
16288;SDS011;26089;43.538;5.250;2023-04-15T06:29:21;1.60;;;1.50;;
16288;SDS011;26089;43.538;5.250;2023-04-15T06:31:48;2.60;;;1.50;;
16288;SDS011;26089;43.538;5.250;2023-04-15T06:34:15;1.30;;;1.20;;
16288;SDS011;26089;43.538;5.250;2023-04-15T06:36:44;2.13;;;1.50;;
16288;SDS011;26089;43.538;5.250;2023-04-15T06:39:10;1.10;;;1.10;;
16288;SDS011;26089;43.538;5.250;2023-04-15T06:41:37;1.73;;;1.37;;
16288;SDS011;26089;43.538;5.250;2023-04-15T06:44:04;1.50;;;1.40;;
16288;SDS011;26089;43.538;5.250;2023-04-15T06:46:31;1.47;;;1.40;;
16288;SDS011;26089;43.538;5.250;2023-04-15T06:48:58;4.00;;;1.70;;
16288;SDS011;26089;43.538;5.250;2023-04-15T06:51:25;1.10;;;1.00;;
16288;SDS011;26089;43.538;5.250;2023-04-15T06:53:54;1.37;;;1.30;;
16288;SDS011;26089;43.538;5.250;2023-04-15T06:56:21;0.97;;;0.97;;
16288;SDS011;26089;43.538;5.250;2023-04-15T06:58:48;1.10;;;1.10;;
16288;SDS011;26089;43.538;5.250;2023-04-15T07:01:15;1.20;;;1.20;;
16288;SDS011;26089;43.538;5.250;2023-04-15T07:03:42;1.53;;;1.20;;
16288;SDS011;26089;43.538;5.250;2023-04-15T07:06:09;1.20;;;1.10;;
16288;SDS011;26089;43.538;5.250;2023-04-15T07:08:37;1.50;;;1.13;;
16288;SDS011;26089;43.538;5.250;2023-04-15T07:11:05;1.00;;;1.00;;
16288;SDS011;26089;43.538;5.250;2023-04-15T07:13:32;1.57;;;1.10;;
16288;SDS011;26089;43.538;5.250;2023-04-15T07:15:59;0.80;;;0.80;;
16288;SDS011;26089;43.538;5.250;2023-04-15T07:18:26;1.53;;;1.10;;
16288;SDS011;26089;43.538;5.250;2023-04-15T07:20:53;1.00;;;1.00;;
16288;SDS011;26089;43.538;5.250;2023-04-15T07:23:20;1.23;;;1.17;;
16288;SDS011;26089;43.538;5.250;2023-04-15T07:25:47;1.20;;;1.10;;
16288;SDS011;26089;43.538;5.250;2023-04-15T07:28:16;1.33;;;1.03;;
16288;SDS011;26089;43.538;5.250;2023-04-15T07:30:43;1.10;;;1.00;;
16288;SDS011;26089;43.538;5.250;2023-04-15T07:33:10;2.07;;;0.80;;
16288;SDS011;26089;43.538;5.250;2023-04-15T07:35:37;0.80;;;0.80;;
16288;SDS011;26089;43.538;5.250;2023-04-15T07:38:04;2.07;;;1.00;;
16288;SDS011;26089;43.538;5.250;2023-04-15T07:40:31;0.70;;;0.70;;
16288;SDS011;26089;43.538;5.250;2023-04-15T07:42:58;1.70;;;0.90;;
16288;SDS011;26089;43.538;5.250;2023-04-15T07:45:26;1.67;;;0.90;;
16288;SDS011;26089;43.538;5.250;2023-04-15T07:47:53;1.23;;;0.67;;
16288;SDS011;26089;43.538;5.250;2023-04-15T07:50:21;1.37;;;0.73;;
16288;SDS011;26089;43.538;5.250;2023-04-15T07:52:48;0.87;;;0.60;;
16288;SDS011;26089;43.538;5.250;2023-04-15T07:55:16;0.60;;;0.60;;
16288;SDS011;26089;43.538;5.250;2023-04-15T07:57:45;1.50;;;0.70;;
16288;SDS011;26089;43.538;5.250;2023-04-15T08:00:14;0.80;;;0.73;;
16288;SDS011;26089;43.538;5.250;2023-04-15T08:02:42;0.70;;;0.70;;
16288;SDS011;26089;43.538;5.250;2023-04-15T08:05:10;0.73;;;0.70;;
16288;SDS011;26089;43.538;5.250;2023-04-15T08:07:38;1.70;;;0.60;;
16288;SDS011;26089;43.538;5.250;2023-04-15T08:10:06;1.57;;;1.10;;
16288;SDS011;26089;43.538;5.250;2023-04-15T08:12:34;2.20;;;0.70;;
16288;SDS011;26089;43.538;5.250;2023-04-15T08:15:01;1.13;;;0.80;;
16288;SDS011;26089;43.538;5.250;2023-04-15T08:17:28;0.67;;;0.67;;
16288;SDS011;26089;43.538;5.250;2023-04-15T08:19:56;0.70;;;0.70;;
16288;SDS011;26089;43.538;5.250;2023-04-15T08:22:23;2.77;;;1.00;;
16288;SDS011;26089;43.538;5.250;2023-04-15T08:24:50;0.80;;;0.80;;
16288;SDS011;26089;43.538;5.250;2023-04-15T08:27:18;1.97;;;0.93;;
16288;SDS011;26089;43.538;5.250;2023-04-15T08:29:45;0.80;;;0.80;;
16288;SDS011;26089;43.538;5.250;2023-04-15T08:32:12;1.00;;;0.70;;
16288;SDS011;26089;43.538;5.250;2023-04-15T08:34:39;1.47;;;0.67;;
16288;SDS011;26089;43.538;5.250;2023-04-15T08:37:07;1.07;;;0.80;;
16288;SDS011;26089;43.538;5.250;2023-04-15T08:39:34;1.40;;;0.73;;
16288;SDS011;26089;43.538;5.250;2023-04-15T08:42:02;2.00;;;0.70;;
16288;SDS011;26089;43.538;5.250;2023-04-15T08:44:33;2.20;;;0.80;;
16288;SDS011;26089;43.538;5.250;2023-04-15T08:47:01;0.50;;;0.50;;
16288;SDS011;26089;43.538;5.250;2023-04-15T08:49:31;1.43;;;0.70;;
16288;SDS011;26089;43.538;5.250;2023-04-15T08:51:58;1.47;;;0.80;;
16288;SDS011;26089;43.538;5.250;2023-04-15T08:54:27;0.93;;;0.50;;
16288;SDS011;26089;43.538;5.250;2023-04-15T08:56:54;0.80;;;0.80;;
16288;SDS011;26089;43.538;5.250;2023-04-15T08:59:23;0.70;;;0.70;;
16288;SDS011;26089;43.538;5.250;2023-04-15T09:01:50;0.93;;;0.43;;
16288;SDS011;26089;43.538;5.250;2023-04-15T09:04:17;2.87;;;0.80;;
16288;SDS011;26089;43.538;5.250;2023-04-15T09:06:45;1.00;;;0.50;;
16288;SDS011;26089;43.538;5.250;2023-04-15T09:09:12;1.50;;;0.80;;
16288;SDS011;26089;43.538;5.250;2023-04-15T09:11:41;1.57;;;0.70;;
16288;SDS011;26089;43.538;5.250;2023-04-15T09:14:08;1.17;;;0.53;;
16288;SDS011;26089;43.538;5.250;2023-04-15T09:19:23;1.03;;;0.53;;
16288;SDS011;26089;43.538;5.250;2023-04-15T09:21:51;1.17;;;0.57;;
16288;SDS011;26089;43.538;5.250;2023-04-15T09:24:20;1.27;;;0.50;;
16288;SDS011;26089;43.538;5.250;2023-04-15T09:26:50;1.63;;;0.90;;
16288;SDS011;26089;43.538;5.250;2023-04-15T09:29:19;2.10;;;0.70;;
16288;SDS011;26089;43.538;5.250;2023-04-15T09:31:49;1.13;;;0.50;;
16288;SDS011;26089;43.538;5.250;2023-04-15T09:34:16;0.80;;;0.80;;
16288;SDS011;26089;43.538;5.250;2023-04-15T09:36:53;1.33;;;0.77;;
16288;SDS011;26089;43.538;5.250;2023-04-15T09:39:21;2.00;;;0.60;;
16288;SDS011;26089;43.538;5.250;2023-04-15T09:42:05;2.93;;;1.20;;
16288;SDS011;26089;43.538;5.250;2023-04-15T09:44:33;0.80;;;0.80;;
16288;SDS011;26089;43.538;5.250;2023-04-15T09:47:00;1.00;;;0.60;;
16288;SDS011;26089;43.538;5.250;2023-04-15T09:49:27;0.97;;;0.73;;
16288;SDS011;26089;43.538;5.250;2023-04-15T09:51:57;1.57;;;0.50;;
16288;SDS011;26089;43.538;5.250;2023-04-15T09:54:28;0.70;;;0.70;;
16288;SDS011;26089;43.538;5.250;2023-04-15T09:57:07;1.10;;;1.10;;
16288;SDS011;26089;43.538;5.250;2023-04-15T09:59:36;2.07;;;1.30;;
16288;SDS011;26089;43.538;5.250;2023-04-15T10:02:03;0.77;;;0.60;;
16288;SDS011;26089;43.538;5.250;2023-04-15T10:04:32;0.40;;;0.40;;
16288;SDS011;26089;43.538;5.250;2023-04-15T10:07:02;0.40;;;0.40;;
16288;SDS011;26089;43.538;5.250;2023-04-15T10:09:30;0.77;;;0.73;;
16288;SDS011;26089;43.538;5.250;2023-04-15T10:11:58;2.10;;;0.50;;
16288;SDS011;26089;43.538;5.250;2023-04-15T10:14:28;0.50;;;0.50;;
16288;SDS011;26089;43.538;5.250;2023-04-15T10:16:58;1.47;;;0.60;;
16288;SDS011;26089;43.538;5.250;2023-04-15T10:19:28;2.03;;;0.50;;
16288;SDS011;26089;43.538;5.250;2023-04-15T10:21:58;0.60;;;0.60;;
16288;SDS011;26089;43.538;5.250;2023-04-15T10:24:26;1.40;;;0.70;;
16288;SDS011;26089;43.538;5.250;2023-04-15T10:26:53;1.17;;;0.60;;
16288;SDS011;26089;43.538;5.250;2023-04-15T10:29:22;0.70;;;0.47;;
16288;SDS011;26089;43.538;5.250;2023-04-15T10:31:52;0.60;;;0.60;;
16288;SDS011;26089;43.538;5.250;2023-04-15T10:34:20;0.63;;;0.57;;
16288;SDS011;26089;43.538;5.250;2023-04-15T10:36:48;2.77;;;0.50;;
16288;SDS011;26089;43.538;5.250;2023-04-15T10:42:06;0.77;;;0.77;;
16288;SDS011;26089;43.538;5.250;2023-04-15T10:44:35;1.70;;;0.63;;
16288;SDS011;26089;43.538;5.250;2023-04-15T10:47:05;0.87;;;0.80;;
16288;SDS011;26089;43.538;5.250;2023-04-15T10:49:41;1.13;;;0.60;;
16288;SDS011;26089;43.538;5.250;2023-04-15T10:52:10;0.77;;;0.77;;
16288;SDS011;26089;43.538;5.250;2023-04-15T10:54:37;0.63;;;0.63;;
16288;SDS011;26089;43.538;5.250;2023-04-15T10:57:08;1.07;;;0.70;;
16288;SDS011;26089;43.538;5.250;2023-04-15T11:00:00;0.50;;;0.50;;
16288;SDS011;26089;43.538;5.250;2023-04-15T11:02:40;1.37;;;0.73;;
16288;SDS011;26089;43.538;5.250;2023-04-15T11:05:12;2.17;;;0.80;;
16288;SDS011;26089;43.538;5.250;2023-04-15T11:07:40;1.43;;;0.90;;
16288;SDS011;26089;43.538;5.250;2023-04-15T11:13:23;0.50;;;0.50;;
16288;SDS011;26089;43.538;5.250;2023-04-15T11:15:56;3.13;;;0.70;;
16288;SDS011;26089;43.538;5.250;2023-04-15T11:18:27;1.00;;;0.90;;
16288;SDS011;26089;43.538;5.250;2023-04-15T11:20:59;2.13;;;0.50;;
16288;SDS011;26089;43.538;5.250;2023-04-15T11:23:29;0.67;;;0.67;;
16288;SDS011;26089;43.538;5.250;2023-04-15T11:26:01;0.73;;;0.70;;
16288;SDS011;26089;43.538;5.250;2023-04-15T11:28:33;2.03;;;0.80;;
16288;SDS011;26089;43.538;5.250;2023-04-15T11:31:10;1.90;;;0.60;;
16288;SDS011;26089;43.538;5.250;2023-04-15T11:33:45;2.57;;;0.70;;
16288;SDS011;26089;43.538;5.250;2023-04-15T11:36:12;1.47;;;0.60;;
16288;SDS011;26089;43.538;5.250;2023-04-15T11:38:43;2.37;;;0.60;;
16288;SDS011;26089;43.538;5.250;2023-04-15T11:41:11;0.60;;;0.60;;
16288;SDS011;26089;43.538;5.250;2023-04-15T11:43:38;0.50;;;0.50;;
16288;SDS011;26089;43.538;5.250;2023-04-15T11:46:05;1.90;;;0.80;;
16288;SDS011;26089;43.538;5.250;2023-04-15T11:48:33;1.27;;;0.87;;
16288;SDS011;26089;43.538;5.250;2023-04-15T11:51:03;1.33;;;0.60;;
16288;SDS011;26089;43.538;5.250;2023-04-15T11:53:35;0.40;;;0.40;;
16288;SDS011;26089;43.538;5.250;2023-04-15T11:56:05;0.70;;;0.60;;
16288;SDS011;26089;43.538;5.250;2023-04-15T11:58:33;1.70;;;0.53;;
16288;SDS011;26089;43.538;5.250;2023-04-15T12:01:02;1.23;;;0.90;;
16288;SDS011;26089;43.538;5.250;2023-04-15T12:03:31;0.67;;;0.67;;
16288;SDS011;26089;43.538;5.250;2023-04-15T12:06:04;0.97;;;0.60;;
16288;SDS011;26089;43.538;5.250;2023-04-15T12:08:59;1.17;;;1.07;;
16288;SDS011;26089;43.538;5.250;2023-04-15T12:11:30;0.50;;;0.50;;
16288;SDS011;26089;43.538;5.250;2023-04-15T12:14:02;0.60;;;0.60;;
16288;SDS011;26089;43.538;5.250;2023-04-15T12:16:35;1.17;;;1.17;;
16288;SDS011;26089;43.538;5.250;2023-04-15T12:19:04;0.70;;;0.53;;
16288;SDS011;26089;43.538;5.250;2023-04-15T12:21:34;0.83;;;0.83;;
16288;SDS011;26089;43.538;5.250;2023-04-15T12:24:03;2.63;;;0.70;;
16288;SDS011;26089;43.538;5.250;2023-04-15T12:26:33;0.40;;;0.40;;
16288;SDS011;26089;43.538;5.250;2023-04-15T12:29:02;1.70;;;0.90;;
16288;SDS011;26089;43.538;5.250;2023-04-15T12:31:31;0.93;;;0.93;;
16288;SDS011;26089;43.538;5.250;2023-04-15T12:33:58;0.30;;;0.30;;
16288;SDS011;26089;43.538;5.250;2023-04-15T12:36:26;0.30;;;0.30;;
16288;SDS011;26089;43.538;5.250;2023-04-15T12:38:55;0.70;;;0.40;;
16288;SDS011;26089;43.538;5.250;2023-04-15T12:41:22;0.77;;;0.40;;
16288;SDS011;26089;43.538;5.250;2023-04-15T12:43:49;0.93;;;0.50;;
16288;SDS011;26089;43.538;5.250;2023-04-15T12:46:16;1.50;;;0.43;;
16288;SDS011;26089;43.538;5.250;2023-04-15T12:48:44;0.93;;;0.50;;
16288;SDS011;26089;43.538;5.250;2023-04-15T12:51:11;0.60;;;0.60;;
16288;SDS011;26089;43.538;5.250;2023-04-15T12:53:39;0.50;;;0.50;;
16288;SDS011;26089;43.538;5.250;2023-04-15T12:56:07;1.40;;;0.53;;
16288;SDS011;26089;43.538;5.250;2023-04-15T12:58:34;1.13;;;0.53;;
16288;SDS011;26089;43.538;5.250;2023-04-15T13:01:01;1.57;;;0.47;;
16288;SDS011;26089;43.538;5.250;2023-04-15T13:03:28;0.67;;;0.63;;
16288;SDS011;26089;43.538;5.250;2023-04-15T13:05:55;0.50;;;0.50;;
16288;SDS011;26089;43.538;5.250;2023-04-15T13:08:22;0.77;;;0.30;;
16288;SDS011;26089;43.538;5.250;2023-04-15T13:10:49;0.60;;;0.60;;
16288;SDS011;26089;43.538;5.250;2023-04-15T13:13:17;0.60;;;0.60;;
16288;SDS011;26089;43.538;5.250;2023-04-15T13:15:44;0.57;;;0.57;;
16288;SDS011;26089;43.538;5.250;2023-04-15T13:18:11;2.23;;;0.63;;
16288;SDS011;26089;43.538;5.250;2023-04-15T13:20:38;0.70;;;0.70;;
16288;SDS011;26089;43.538;5.250;2023-04-15T13:23:06;2.90;;;0.63;;
16288;SDS011;26089;43.538;5.250;2023-04-15T13:25:33;1.30;;;0.67;;
16288;SDS011;26089;43.538;5.250;2023-04-15T13:28:00;3.67;;;0.60;;
16288;SDS011;26089;43.538;5.250;2023-04-15T13:30:28;0.40;;;0.40;;
16288;SDS011;26089;43.538;5.250;2023-04-15T13:32:55;0.53;;;0.53;;
16288;SDS011;26089;43.538;5.250;2023-04-15T13:35:22;2.30;;;0.80;;
16288;SDS011;26089;43.538;5.250;2023-04-15T13:37:49;2.10;;;0.50;;
16288;SDS011;26089;43.538;5.250;2023-04-15T13:40:16;1.17;;;0.90;;
16288;SDS011;26089;43.538;5.250;2023-04-15T13:42:45;2.03;;;1.50;;
16288;SDS011;26089;43.538;5.250;2023-04-15T13:45:12;0.60;;;0.60;;
16288;SDS011;26089;43.538;5.250;2023-04-15T13:47:41;2.43;;;0.40;;
16288;SDS011;26089;43.538;5.250;2023-04-15T13:50:08;0.80;;;0.60;;
16288;SDS011;26089;43.538;5.250;2023-04-15T13:52:36;2.40;;;0.80;;
16288;SDS011;26089;43.538;5.250;2023-04-15T13:55:03;0.40;;;0.40;;
16288;SDS011;26089;43.538;5.250;2023-04-15T13:57:31;0.50;;;0.50;;
16288;SDS011;26089;43.538;5.250;2023-04-15T13:59:58;0.30;;;0.30;;
16288;SDS011;26089;43.538;5.250;2023-04-15T14:02:25;0.40;;;0.40;;
16288;SDS011;26089;43.538;5.250;2023-04-15T14:04:53;0.40;;;0.40;;
16288;SDS011;26089;43.538;5.250;2023-04-15T14:07:20;0.60;;;0.60;;
16288;SDS011;26089;43.538;5.250;2023-04-15T14:09:47;2.53;;;0.43;;
16288;SDS011;26089;43.538;5.250;2023-04-15T14:12:14;0.50;;;0.40;;
16288;SDS011;26089;43.538;5.250;2023-04-15T14:14:41;0.90;;;0.40;;
16288;SDS011;26089;43.538;5.250;2023-04-15T14:17:08;0.77;;;0.63;;
16288;SDS011;26089;43.538;5.250;2023-04-15T14:19:35;1.73;;;0.40;;
16288;SDS011;26089;43.538;5.250;2023-04-15T14:22:04;0.70;;;0.70;;
16288;SDS011;26089;43.538;5.250;2023-04-15T14:24:31;0.53;;;0.53;;
16288;SDS011;26089;43.538;5.250;2023-04-15T14:26:58;0.93;;;0.40;;
16288;SDS011;26089;43.538;5.250;2023-04-15T14:29:26;1.70;;;0.50;;
16288;SDS011;26089;43.538;5.250;2023-04-15T14:31:53;1.33;;;0.70;;
16288;SDS011;26089;43.538;5.250;2023-04-15T14:34:21;0.50;;;0.40;;
16288;SDS011;26089;43.538;5.250;2023-04-15T14:36:49;0.67;;;0.50;;
16288;SDS011;26089;43.538;5.250;2023-04-15T14:39:18;3.43;;;0.70;;
16288;SDS011;26089;43.538;5.250;2023-04-15T14:41:45;2.50;;;0.70;;
16288;SDS011;26089;43.538;5.250;2023-04-15T14:44:12;0.67;;;0.60;;
16288;SDS011;26089;43.538;5.250;2023-04-15T14:46:39;0.60;;;0.60;;
16288;SDS011;26089;43.538;5.250;2023-04-15T14:49:06;0.30;;;0.30;;
16288;SDS011;26089;43.538;5.250;2023-04-15T14:51:33;1.07;;;0.50;;
16288;SDS011;26089;43.538;5.250;2023-04-15T14:54:00;1.60;;;0.40;;
16288;SDS011;26089;43.538;5.250;2023-04-15T14:56:28;3.50;;;1.00;;
16288;SDS011;26089;43.538;5.250;2023-04-15T14:58:56;0.50;;;0.50;;
16288;SDS011;26089;43.538;5.250;2023-04-15T15:01:22;1.07;;;0.47;;